KMFE/MFE METAR and TAF weather

Enter ICAO airport designator
Station Type Date Time Source
KMFE METAR 2021/07/26 16:53 UTC NOAA

KMFE 261653Z 15007KT 10SM CLR 32/23 A2996 RMK AO2 SLP145 T03170228


Station Type Date Time Source
KMFE Decoded METAR 2021/07/26 16:53 UTC NOAA

MCALLEN MILLER INTERNATIONAL AIRPORT , TX, United States (KMFE) 26-11N 98-15W 38M
Jul 26, 2021 - 12:53 PM EDT / 2021.07.26 1653 UTC
Wind: from the SSE (150 degrees) at 8 MPH (7 KT):0
Visibility: 10 mile(s):0
Sky conditions: clear
Temperature: 89.1 F (31.7 C)
Heat index: 97.0 F (36.1 C):1
Dew Point: 73.0 F (22.8 C)
Relative Humidity: 59%
Pressure (altimeter): 29.96 in. Hg (1014 hPa)
ob: KMFE 261653Z 15007KT 10SM CLR 32/23 A2996 RMK AO2 SLP145 T03170228
cycle: 17

Station Type Date Time Source
KMFE TAF 2021/07/26 12:36 UTC NOAA

TAF KMFE 261135Z 2612/2712 13004KT P6SM SCT030
TEMPO 2612/2613 4SM BR
FM261400 15009KT P6SM FEW250
FM261800 13010G16KT P6SM SKC
FM270000 12010KT P6SM SKC

Example: see airport list